Time;durP1;ratioP1;P1;durP2;ratioP2;P2;SDS_P1;SDS_P2;PMS_P1;PMS_P2;Temp;Humidity;BMP_temperature;BMP_pressure;BME280_temperature;BME280_humidity;BME280_pressure;Samples;Min_cycle;Max_cycle;Signal;HPM_P1;HPM_P2
2023/04/28 00:01:29;;;;;;;5.20;3.67;;;10.90;99.90;;;11.61;100.00;97925.31;4923813;29;20469;-78
2023/04/28 00:03:59;;;;;;;8.27;3.03;;;10.80;99.90;;;11.63;100.00;97928.53;4922458;29;21212;-79
2023/04/28 00:06:29;;;;;;;8.77;3.50;;;10.90;99.90;;;11.63;100.00;97922.53;4923827;29;20934;-79
2023/04/28 00:08:58;;;;;;;7.90;3.23;;;10.90;99.90;;;11.59;100.00;97912.41;4924075;29;20517;-78
2023/04/28 00:11:28;;;;;;;5.37;3.83;;;10.80;99.90;;;11.55;100.00;97903.34;4923818;29;20478;-78
2023/04/28 00:13:58;;;;;;;10.00;3.37;;;10.80;99.90;;;11.50;100.00;97897.88;4923794;29;20470;-78
2023/04/28 00:16:30;;;;;;;5.20;3.63;;;10.80;99.90;;;11.47;100.00;97897.47;4923667;29;20557;-79
2023/04/28 00:18:59;;;;;;;7.03;3.10;;;10.80;99.90;;;11.44;100.00;97900.47;4924615;29;20471;-78
2023/04/28 00:21:30;;;;;;;16.37;4.40;;;10.70;99.90;;;11.42;100.00;97894.66;4926803;29;20619;-79
2023/04/28 00:24:01;;;;;;;6.00;3.20;;;10.70;99.90;;;11.44;100.00;97892.63;4925260;29;20485;-78
2023/04/28 00:26:30;;;;;;;8.27;3.63;;;10.70;99.90;;;11.43;100.00;97894.44;4925840;29;21062;-82
2023/04/28 00:28:59;;;;;;;9.40;3.60;;;10.70;99.90;;;11.41;100.00;97883.38;4924449;29;20516;-78
2023/04/28 00:31:30;;;;;;;6.27;3.70;;;10.70;99.90;;;11.44;100.00;97877.72;4927923;29;20887;-78
2023/04/28 00:34:01;;;;;;;3.90;3.00;;;10.70;99.90;;;11.41;100.00;97870.28;4926471;29;20466;-82
2023/04/28 00:36:32;;;;;;;6.37;3.37;;;10.70;99.90;;;11.41;100.00;97872.88;4926215;29;20509;-78
2023/04/28 00:39:02;;;;;;;5.20;3.00;;;10.60;99.90;;;11.40;100.00;97870.44;4926702;29;20470;-78
2023/04/28 00:41:34;;;;;;;6.13;3.20;;;10.70;99.90;;;11.40;100.00;97866.03;4926555;29;20472;-79
2023/04/28 00:44:03;;;;;;;6.23;2.90;;;10.70;99.90;;;11.40;100.00;97859.97;4927502;29;20553;-78
2023/04/28 00:46:35;;;;;;;10.70;3.33;;;10.60;99.90;;;11.40;100.00;97862.59;4926905;29;20555;-78
2023/04/28 00:49:05;;;;;;;4.97;3.70;;;10.70;99.90;;;11.38;100.00;97849.72;4925885;29;20471;-78
2023/04/28 00:51:36;;;;;;;3.90;3.13;;;10.60;99.90;;;11.38;100.00;97849.72;4926880;29;21292;-78
2023/04/28 00:54:07;;;;;;;5.73;3.13;;;10.60;99.90;;;11.37;100.00;97858.56;4925016;29;20569;-79
2023/04/28 00:56:37;;;;;;;8.20;3.50;;;10.60;99.90;;;11.34;100.00;97872.06;4923897;29;21131;-78
2023/04/28 00:59:07;;;;;;;6.03;4.07;;;10.60;99.90;;;11.36;100.00;97874.47;4924020;29;20478;-78
2023/04/28 01:01:38;;;;;;;6.20;3.80;;;10.60;99.90;;;11.36;100.00;97877.06;4923544;29;20597;-78
2023/04/28 01:04:09;;;;;;;7.93;3.93;;;10.70;99.90;;;11.36;100.00;97870.03;4922751;29;20458;-78
2023/04/28 01:06:40;;;;;;;4.03;3.33;;;10.60;99.90;;;11.35;100.00;97868.41;4923575;29;20497;-78
2023/04/28 01:09:10;;;;;;;5.30;3.80;;;10.60;99.90;;;11.34;100.00;97873.88;4925522;29;20466;-78
2023/04/28 01:11:40;;;;;;;7.20;3.57;;;10.60;99.90;;;11.28;100.00;97875.44;4922757;29;20495;-79
2023/04/28 01:14:09;;;;;;;9.80;3.87;;;10.60;99.90;;;11.32;100.00;97857.53;4922825;29;20470;-78
2023/04/28 01:16:41;;;;;;;4.90;3.00;;;10.60;99.90;;;11.32;100.00;97850.47;4922907;29;20624;-78
2023/04/28 01:19:21;;;;;;;13.97;4.00;;;10.60;99.90;;;11.33;100.00;97846.88;4924200;29;20961;-79
2023/04/28 01:21:51;;;;;;;9.13;3.77;;;10.50;99.90;;;11.30;100.00;97839.41;4922670;29;20526;-78
2023/04/28 01:24:22;;;;;;;7.47;3.63;;;10.50;99.90;;;11.30;100.00;97836.78;4922469;29;20463;-78
2023/04/28 01:26:52;;;;;;;5.23;3.50;;;10.50;99.90;;;11.31;100.00;97840.22;4926095;29;20992;-78
2023/04/28 01:29:21;;;;;;;6.80;4.13;;;10.50;99.90;;;11.31;100.00;97830.56;4924002;29;20474;-78
2023/04/28 01:31:51;;;;;;;8.43;3.43;;;10.50;99.90;;;11.33;100.00;97823.31;4921631;29;20466;-78
2023/04/28 01:34:21;;;;;;;6.80;3.83;;;10.50;99.90;;;11.32;100.00;97824.31;4924803;29;20509;-78
2023/04/28 01:36:50;;;;;;;8.00;4.00;;;10.50;99.90;;;11.33;100.00;97820.69;4924900;29;20502;-78
2023/04/28 01:39:21;;;;;;;8.17;3.90;;;10.50;99.90;;;11.34;100.00;97824.13;4925220;29;20462;-78
2023/04/28 01:41:50;;;;;;;5.10;3.80;;;10.50;99.90;;;11.35;100.00;97831.75;4921618;29;20473;-78
2023/04/28 01:44:20;;;;;;;6.83;3.30;;;10.50;99.90;;;11.38;100.00;97831.41;4924365;29;20521;-78
2023/04/28 01:46:49;;;;;;;3.43;3.13;;;10.50;99.90;;;11.38;100.00;97830.59;4922940;29;20549;-78
2023/04/28 01:49:20;;;;;;;5.53;3.30;;;10.50;99.90;;;11.37;100.00;97835.00;4923153;29;20463;-79
2023/04/28 01:51:50;;;;;;;5.10;3.10;;;10.50;99.90;;;11.39;100.00;97840.03;4922902;29;20957;-78
2023/04/28 01:54:19;;;;;;;4.50;3.90;;;10.60;99.90;;;11.36;100.00;97837.81;4922570;29;20463;-78
2023/04/28 01:56:51;;;;;;;4.20;3.30;;;10.50;99.90;;;11.35;100.00;97842.22;4921457;29;20501;-78
2023/04/28 01:59:21;;;;;;;7.70;3.50;;;10.60;99.90;;;11.34;100.00;97851.13;4923618;29;20463;-78
2023/04/28 02:01:51;;;;;;;7.93;3.87;;;10.60;99.90;;;11.31;100.00;97856.75;4922044;29;21073;-78
2023/04/28 02:04:21;;;;;;;7.53;3.47;;;10.60;99.90;;;11.30;100.00;97849.06;4922907;29;20502;-78
2023/04/28 02:06:51;;;;;;;6.17;3.90;;;10.50;99.90;;;11.31;100.00;97846.28;4923650;29;20477;-78
2023/04/28 02:09:20;;;;;;;5.90;3.87;;;10.50;99.90;;;11.29;100.00;97853.50;4923795;29;21590;-78
2023/04/28 02:11:52;;;;;;;5.90;3.60;;;10.50;99.90;;;11.28;100.00;97844.03;4923161;29;20466;-79
2023/04/28 02:14:21;;;;;;;10.70;3.97;;;10.50;99.90;;;11.29;100.00;97844.84;4920812;29;20573;-78
2023/04/28 02:16:50;;;;;;;5.03;3.97;;;10.50;99.90;;;11.27;100.00;97834.56;4921974;29;20570;-78
2023/04/28 02:19:20;;;;;;;8.00;3.90;;;10.50;99.90;;;11.25;100.00;97818.25;4916568;29;20478;-78
2023/04/28 02:21:49;;;;;;;4.40;3.57;;;10.50;99.90;;;11.26;100.00;97822.50;4921015;29;21036;-78
2023/04/28 02:24:20;;;;;;;20.63;3.70;;;10.50;99.90;;;11.27;100.00;97805.78;4920910;29;20984;-78
2023/04/28 02:26:48;;;;;;;5.37;4.10;;;10.50;99.90;;;11.27;100.00;97807.59;4920395;29;20590;-78
2023/04/28 02:29:20;;;;;;;5.37;3.63;;;10.50;99.90;;;11.28;100.00;97804.75;4920143;29;21218;-78
2023/04/28 02:31:50;;;;;;;7.40;4.10;;;10.50;99.90;;;11.30;100.00;97802.78;4917924;29;20583;-78
2023/04/28 02:34:22;;;;;;;4.77;3.80;;;10.50;99.90;;;11.30;100.00;97802.78;4917734;29;20470;-78
2023/04/28 02:36:51;;;;;;;4.90;3.57;;;10.50;99.90;;;11.31;100.00;97796.53;4918273;29;20861;-78
2023/04/28 02:39:24;;;;;;;14.00;3.40;;;10.50;99.90;;;11.30;100.00;97781.00;4921420;29;20533;-78
2023/04/28 02:41:54;;;;;;;7.97;3.80;;;10.50;99.90;;;11.29;100.00;97768.94;4918397;29;21085;-78
2023/04/28 02:44:25;;;;;;;9.30;4.20;;;10.50;99.90;;;11.29;100.00;97774.16;4918190;29;20462;-78
2023/04/28 02:46:55;;;;;;;5.57;3.50;;;10.50;99.90;;;11.30;100.00;97771.34;4921178;29;20467;-78
2023/04/28 02:49:25;;;;;;;8.03;4.77;;;10.50;99.90;;;11.30;100.00;97779.22;4919744;29;21082;-78
2023/04/28 02:51:56;;;;;;;12.43;3.50;;;10.50;99.90;;;11.30;100.00;97781.81;4919353;29;20506;-78
2023/04/28 02:54:27;;;;;;;6.67;4.17;;;10.50;99.90;;;11.28;100.00;97786.44;4914240;29;20467;-78
2023/04/28 02:56:57;;;;;;;3.90;3.50;;;10.50;99.90;;;11.28;100.00;97778.59;4916987;29;20725;-78
2023/04/28 02:59:28;;;;;;;4.97;3.70;;;10.50;99.90;;;11.30;100.00;97784.44;4918712;29;20470;-78
2023/04/28 03:01:59;;;;;;;6.90;4.37;;;10.50;99.90;;;11.26;100.00;97777.19;4915941;29;20474;-78
2023/04/28 03:04:29;;;;;;;7.97;3.87;;;10.50;99.90;;;11.27;100.00;97779.59;4917308;29;21005;-78
2023/04/28 03:07:00;;;;;;;8.00;3.73;;;10.50;99.90;;;11.26;100.00;97778.00;4918008;29;20908;-78
2023/04/28 03:09:30;;;;;;;14.87;4.00;;;10.50;99.90;;;11.27;100.00;97766.53;4918124;29;20502;-78
2023/04/28 03:12:01;;;;;;;21.07;4.40;;;10.50;99.90;;;11.27;100.00;97763.09;4916795;29;20462;-78
2023/04/28 03:14:33;;;;;;;7.00;3.83;;;10.50;99.90;;;11.25;100.00;97763.28;4918044;29;20860;-78
2023/04/28 03:17:03;;;;;;;9.70;4.00;;;10.50;99.90;;;11.27;100.00;97765.72;4916907;29;20845;-78
2023/04/28 03:19:33;;;;;;;5.73;3.50;;;10.50;99.90;;;11.27;100.00;97760.47;4920365;29;20957;-78
2023/04/28 03:22:02;;;;;;;6.10;4.10;;;10.50;99.90;;;11.26;100.00;97749.19;4919955;29;20988;-78
2023/04/28 03:24:33;;;;;;;24.37;4.80;;;10.50;99.90;;;11.25;100.00;97736.28;4919643;29;20589;-78
2023/04/28 03:27:04;;;;;;;4.83;3.83;;;10.50;99.90;;;11.25;100.00;97726.63;4918401;29;20462;-78
2023/04/28 03:29:35;;;;;;;8.73;4.40;;;10.50;99.90;;;11.27;100.00;97723.84;4920709;29;21085;-79
2023/04/28 03:32:05;;;;;;;6.10;3.57;;;10.50;99.90;;;11.25;100.00;97718.78;4916758;29;20482;-78
2023/04/28 03:34:35;;;;;;;4.47;3.70;;;10.50;99.90;;;11.26;100.00;97715.16;4917392;29;20479;-78
2023/04/28 03:37:05;;;;;;;7.63;4.27;;;10.50;99.90;;;11.27;100.00;97719.41;4918787;29;20462;-78
2023/04/28 03:39:34;;;;;;;15.60;4.00;;;10.50;99.90;;;11.27;100.00;97719.41;4920300;29;21040;-78
2023/04/28 03:42:03;;;;;;;9.23;5.80;;;10.40;99.90;;;11.32;100.00;97724.84;4919653;29;20485;-78
2023/04/28 03:44:35;;;;;;;7.13;4.67;;;10.50;99.90;;;11.31;100.00;97714.59;4918285;29;20474;-78
2023/04/28 03:47:06;;;;;;;13.10;4.00;;;10.50;99.90;;;11.28;100.00;97720.22;4920136;29;20537;-78
2023/04/28 03:49:36;;;;;;;11.00;3.73;;;10.50;99.90;;;11.27;100.00;97711.56;4918936;29;20872;-79
2023/04/28 03:52:06;;;;;;;5.67;3.67;;;10.50;99.90;;;11.27;100.00;97711.56;4917666;29;20529;-78
2023/04/28 03:54:36;;;;;;;5.23;3.97;;;10.50;99.90;;;11.27;100.00;97708.13;4919358;29;20469;-78
2023/04/28 03:57:06;;;;;;;5.37;4.43;;;10.50;99.90;;;11.28;100.00;97704.50;4922147;29;20484;-78
2023/04/28 03:59:38;;;;;;;7.23;4.50;;;10.50;99.90;;;11.29;100.00;97700.88;4926067;29;20999;-78
2023/04/28 04:02:07;;;;;;;5.30;3.93;;;10.50;99.90;;;11.27;100.00;97692.41;4923044;29;20510;-78
2023/04/28 04:04:38;;;;;;;6.23;4.47;;;10.50;99.90;;;11.28;100.00;97696.66;4926249;29;20459;-78
2023/04/28 04:07:08;;;;;;;9.63;4.63;;;10.50;99.90;;;11.28;100.00;97689.59;4924742;29;20534;-78
2023/04/28 04:09:37;;;;;;;12.27;5.17;;;10.50;99.90;;;11.27;100.00;97695.84;4924124;29;21194;-78
2023/04/28 04:12:09;;;;;;;7.17;4.60;;;10.50;99.90;;;11.28;100.00;97694.03;4922964;29;20505;-78
2023/04/28 04:14:40;;;;;;;6.17;4.37;;;10.50;99.90;;;11.28;100.00;97700.06;4925303;29;20550;-78
2023/04/28 04:17:10;;;;;;;7.23;4.43;;;10.50;99.90;;;11.29;100.00;97696.44;4922915;29;20546;-78
2023/04/28 04:19:40;;;;;;;4.80;3.90;;;10.50;99.90;;;11.27;100.00;97693.22;4927188;29;20506;-78
2023/04/28 04:22:10;;;;;;;7.37;4.43;;;10.50;99.90;;;11.28;100.00;97686.97;4926538;29;20475;-78
2023/04/28 04:24:40;;;;;;;8.73;4.90;;;10.50;99.90;;;11.29;100.00;97691.22;4923743;29;20474;-78
2023/04/28 04:27:10;;;;;;;7.00;4.23;;;10.50;99.90;;;11.28;100.00;97688.81;4925234;29;21080;-79
2023/04/28 04:29:41;;;;;;;7.00;5.07;;;10.50;99.90;;;11.27;100.00;97682.75;4924779;29;21395;-78
2023/04/28 04:32:11;;;;;;;8.47;4.87;;;10.50;99.90;;;11.25;100.00;97690.00;4925920;29;20481;-79
2023/04/28 04:34:41;;;;;;;12.97;4.30;;;10.50;99.90;;;11.25;100.00;97684.75;4925807;29;20514;-78
2023/04/28 04:37:10;;;;;;;7.00;5.50;;;10.50;99.90;;;11.26;100.00;97682.94;4927358;29;20463;-78
2023/04/28 04:39:41;;;;;;;10.80;5.40;;;10.50;99.90;;;11.27;100.00;97687.19;4927769;29;20474;-79
2023/04/28 04:42:11;;;;;;;8.63;5.37;;;10.50;99.90;;;11.27;100.00;97698.47;4925017;29;20486;-78
2023/04/28 04:44:55;;;;;;;9.60;4.60;;;10.50;99.90;;;11.25;100.00;97691.81;4922796;29;20471;-78
2023/04/28 04:47:25;;;;;;;8.63;5.00;;;10.50;99.90;;;11.26;100.00;97690.81;4927161;29;20518;-78
2023/04/28 04:49:56;;;;;;;6.27;5.03;;;10.50;99.90;;;11.24;100.00;97696.25;4923398;29;20918;-78
2023/04/28 04:52:26;;;;;;;6.33;4.90;;;10.50;99.90;;;11.25;100.00;97689.19;4926262;29;20469;-78
2023/04/28 04:54:56;;;;;;;7.20;5.60;;;10.50;99.90;;;11.26;100.00;97699.47;4925436;29;20466;-79
2023/04/28 04:57:27;;;;;;;8.30;5.13;;;10.50;99.90;;;11.26;100.00;97706.50;4921737;29;20514;-78
2023/04/28 04:59:58;;;;;;;6.60;4.33;;;10.50;99.90;;;11.25;100.00;97705.69;4926360;29;21209;-78
2023/04/28 05:02:28;;;;;;;8.37;4.60;;;10.50;99.90;;;11.24;100.00;97691.03;4926242;29;20466;-79
2023/04/28 05:04:58;;;;;;;8.07;4.67;;;10.50;99.90;;;11.21;100.00;97688.78;4924407;29;21456;-78
2023/04/28 05:07:47;;;;;;;7.90;4.90;;;10.50;99.90;;;11.23;100.00;97688.59;4926670;29;20462;-78
2023/04/28 05:10:17;;;;;;;7.67;5.27;;;10.50;99.90;;;11.24;100.00;97677.13;4925618;29;20996;-79
2023/04/28 05:12:47;;;;;;;7.60;4.60;;;10.40;99.90;;;11.25;100.00;97697.03;4927509;29;20503;-78
2023/04/28 05:15:18;;;;;;;5.20;4.70;;;10.40;99.90;;;11.23;100.00;97686.78;4925126;29;21167;-78
2023/04/28 05:17:47;;;;;;;5.77;4.40;;;10.50;99.90;;;11.26;100.00;97688.19;4924659;29;20876;-78
2023/04/28 05:20:17;;;;;;;5.10;3.90;;;10.50;99.90;;;11.26;100.00;97699.47;4924772;29;20470;-78
2023/04/28 05:22:47;;;;;;;9.90;4.40;;;10.50;99.90;;;11.27;100.00;97703.69;4924399;29;20489;-78
2023/04/28 05:25:16;;;;;;;5.80;4.70;;;10.50;99.90;;;11.26;100.00;97694.22;4925431;29;20538;-78
2023/04/28 05:27:46;;;;;;;5.50;3.80;;;10.50;99.90;;;11.26;100.00;97696.84;4921790;29;20479;-79
2023/04/28 05:30:18;;;;;;;5.70;4.50;;;10.50;99.90;;;11.28;100.00;97692.22;4923242;29;20486;-78
2023/04/28 05:32:48;;;;;;;4.83;3.90;;;10.50;99.90;;;11.28;100.00;97689.59;4922658;29;20481;-79
2023/04/28 05:35:19;;;;;;;4.67;3.90;;;10.50;99.90;;;11.31;100.00;97699.69;4924993;29;20458;-78
2023/04/28 05:37:50;;;;;;;8.17;4.30;;;10.50;99.90;;;11.31;100.00;97704.91;4922741;29;20895;-78
2023/04/28 05:40:20;;;;;;;5.50;4.07;;;10.60;99.90;;;11.33;100.00;97713.38;4922317;29;20549;-78
2023/04/28 05:42:49;;;;;;;10.53;5.23;;;10.60;99.90;;;11.34;100.00;97717.59;4922850;29;20557;-78
2023/04/28 05:45:21;;;;;;;15.87;9.47;;;10.60;99.90;;;11.34;100.00;97708.94;4922005;29;20977;-79
2023/04/28 05:47:53;;;;;;;5.17;4.00;;;10.60;99.90;;;11.38;100.00;97718.81;4918063;29;20462;-74
2023/04/28 05:50:23;;;;;;;5.67;4.03;;;10.60;99.90;;;11.41;100.00;97715.00;4921789;29;20490;-73
2023/04/28 05:52:54;;;;;;;4.40;4.00;;;10.60;99.90;;;11.41;100.00;97709.75;4922898;29;20507;-75
2023/04/28 05:55:24;;;;;;;3.67;3.30;;;10.60;99.90;;;11.42;100.00;97711.38;4923377;29;20468;-75
2023/04/28 05:57:55;;;;;;;4.87;3.70;;;10.70;99.90;;;11.42;100.00;97714.78;4926847;29;20471;-74
2023/04/28 06:00:27;;;;;;;5.27;3.80;;;10.60;99.90;;;11.43;100.00;97705.94;4926738;29;20565;-75
2023/04/28 06:02:57;;;;;;;6.00;3.40;;;10.70;99.90;;;11.43;100.00;97695.44;4926518;29;20463;-75
2023/04/28 06:05:26;;;;;;;8.60;4.00;;;10.60;99.90;;;11.43;100.00;97700.69;4925135;29;20471;-78
2023/04/28 06:07:55;;;;;;;10.40;4.33;;;10.60;99.90;;;11.44;100.00;97698.88;4925211;29;20463;-75
2023/04/28 06:10:27;;;;;;;10.43;4.67;;;10.60;99.90;;;11.43;100.00;97699.88;4925300;29;20502;-75
2023/04/28 06:12:57;;;;;;;14.80;4.50;;;10.70;99.90;;;11.43;100.00;97697.25;4925224;29;20502;-75
2023/04/28 06:15:29;;;;;;;5.13;4.47;;;10.60;99.90;;;11.45;100.00;97700.50;4924738;29;21078;-75
2023/04/28 06:17:58;;;;;;;10.20;4.60;;;10.70;99.90;;;11.43;100.00;97690.22;4923709;29;20475;-74
2023/04/28 06:20:29;;;;;;;5.33;4.50;;;10.70;99.90;;;11.46;100.00;97699.47;4922457;29;20968;-75
2023/04/28 06:22:58;;;;;;;5.80;3.93;;;10.70;99.90;;;11.48;100.00;97700.09;4923850;29;20465;-75
2023/04/28 06:25:29;;;;;;;4.63;4.13;;;10.70;99.90;;;11.48;100.00;97694.84;4923222;29;20500;-75
2023/04/28 06:27:58;;;;;;;6.30;3.90;;;10.70;99.90;;;11.48;100.00;97700.09;4923573;29;20608;-75
2023/04/28 06:30:28;;;;;;;4.80;3.80;;;10.70;99.90;;;11.49;100.00;97692.03;4921931;29;21064;-75
2023/04/28 06:32:58;;;;;;;6.47;4.83;;;10.70;99.90;;;11.52;100.00;97686.38;4923542;29;20491;-76
2023/04/28 06:35:29;;;;;;;11.47;7.00;;;10.80;99.90;;;11.56;100.00;97684.16;4923568;29;20467;-75
2023/04/28 06:37:59;;;;;;;7.67;5.60;;;10.80;99.90;;;11.59;100.00;97692.41;4923651;29;20471;-75
2023/04/28 06:40:28;;;;;;;10.60;4.40;;;10.90;99.90;;;11.63;100.00;97697.28;4923640;29;20557;-75
2023/04/28 06:42:57;;;;;;;6.27;4.20;;;10.90;99.90;;;11.63;100.00;97698.88;4924407;29;20553;-76
2023/04/28 06:45:28;;;;;;;5.50;4.40;;;10.90;99.90;;;11.67;100.00;97703.69;4925875;29;20471;-75
2023/04/28 06:47:57;;;;;;;7.50;4.43;;;11.00;99.90;;;11.67;100.00;97699.28;4924706;29;20557;-75
2023/04/28 06:50:27;;;;;;;5.33;4.57;;;10.90;99.90;;;11.70;100.00;97690.22;4926064;29;20510;-75
2023/04/28 06:52:57;;;;;;;7.13;4.40;;;10.90;99.90;;;11.71;100.00;97689.22;4926616;29;21012;-76
2023/04/28 06:55:28;;;;;;;4.87;3.70;;;11.00;99.90;;;11.74;100.00;97675.72;4926406;29;20558;-75
2023/04/28 06:57:57;;;;;;;4.90;4.07;;;11.00;99.90;;;11.77;100.00;97667.44;4925911;29;20573;-75
2023/04/28 07:00:29;;;;;;;7.23;3.93;;;11.10;99.90;;;11.79;100.00;97671.50;4919770;29;20471;-74
2023/04/28 07:03:00;;;;;;;6.83;4.33;;;11.10;99.90;;;11.84;100.00;97678.72;4921596;29;20466;-74
2023/04/28 07:05:32;;;;;;;4.00;3.60;;;11.10;99.90;;;11.86;100.00;97672.31;4921562;29;20493;-75
2023/04/28 07:08:00;;;;;;;7.17;4.50;;;11.20;99.90;;;11.89;100.00;97669.28;4921107;29;20507;-75
2023/04/28 07:10:30;;;;;;;3.27;2.67;;;11.20;99.90;;;11.94;100.00;97673.91;4922183;29;20541;-75
2023/04/28 07:13:00;;;;;;;2.77;2.20;;;11.20;99.90;;;11.98;100.00;97659.34;4921873;29;20478;-75
2023/04/28 07:15:32;;;;;;;2.30;1.70;;;11.30;99.90;;;12.03;100.00;97667.41;4922275;29;21255;-75
2023/04/28 07:18:02;;;;;;;2.17;1.90;;;11.30;99.90;;;12.08;100.00;97670.22;4922668;29;20486;-75
2023/04/28 07:20:31;;;;;;;1.87;1.77;;;11.30;99.90;;;12.14;100.00;97668.59;4922597;29;20467;-75
2023/04/28 07:23:00;;;;;;;2.50;1.80;;;11.30;99.90;;;12.18;100.00;97669.81;4921584;29;20471;-75
2023/04/28 07:25:31;;;;;;;2.90;2.20;;;11.40;99.90;;;12.23;100.00;97673.41;4923486;29;20475;-75
2023/04/28 07:28:05;;;;;;;1.93;1.80;;;11.40;99.90;;;12.30;100.00;97679.44;4923923;28;20530;-75
2023/04/28 07:30:36;;;;;;;2.13;1.53;;;11.50;99.90;;;12.37;100.00;97674.16;4923516;29;20489;-77
2023/04/28 07:33:06;;;;;;;1.93;1.47;;;11.70;99.90;;;12.41;100.00;97670.94;4925917;29;20820;-75
2023/04/28 07:35:36;;;;;;;1.60;1.50;;;11.70;99.90;;;12.49;100.00;97669.91;4927249;29;20455;-75
2023/04/28 07:38:06;;;;;;;1.40;1.30;;;11.70;99.90;;;12.55;100.00;97669.88;4922345;29;21202;-75
2023/04/28 07:40:36;;;;;;;1.50;1.37;;;11.80;99.90;;;12.61;100.00;97676.09;4923180;29;20691;-75
2023/04/28 07:43:06;;;;;;;49.33;25.77;;;11.90;99.90;;;12.66;100.00;97673.66;4925845;29;20477;-74
2023/04/28 07:45:41;;;;;;;2.20;2.00;;;12.00;99.90;;;12.74;100.00;97673.41;4927909;29;20506;-75
2023/04/28 07:48:18;;;;;;;1.43;1.30;;;12.00;99.90;;;12.79;100.00;97673.59;4928628;29;20455;-75
2023/04/28 07:50:48;;;;;;;2.10;1.30;;;12.10;99.90;;;12.86;100.00;97673.53;4929005;29;20498;-75
2023/04/28 07:53:19;;;;;;;1.87;1.77;;;12.20;99.90;;;12.92;100.00;97670.06;4928383;29;20555;-75
2023/04/28 07:55:48;;;;;;;1.40;1.13;;;12.20;99.90;;;12.98;100.00;97669.25;4928363;29;20517;-75
2023/04/28 07:58:18;;;;;;;1.20;1.10;;;12.30;99.90;;;13.02;100.00;97665.16;4929255;29;20506;-75
2023/04/28 08:00:49;;;;;;;1.00;0.90;;;12.30;99.90;;;13.08;100.00;97672.22;4928098;29;20475;-76
2023/04/28 08:03:18;;;;;;;3.27;1.00;;;12.40;99.90;;;13.15;100.00;97672.19;4928081;29;21198;-75
2023/04/28 08:05:48;;;;;;;1.17;1.07;;;12.50;99.90;;;13.18;100.00;97677.84;4927993;29;20545;-75
2023/04/28 08:08:17;;;;;;;0.90;0.90;;;12.60;99.90;;;13.23;100.00;97670.09;4929230;29;20554;-74
2023/04/28 08:10:49;;;;;;;1.37;1.07;;;12.60;99.90;;;13.28;100.00;97672.91;4928378;29;20508;-75
2023/04/28 08:13:19;;;;;;;1.10;1.00;;;12.60;99.90;;;13.32;100.00;97681.16;4928878;29;20498;-75
2023/04/28 08:15:51;;;;;;;1.20;1.10;;;12.60;99.90;;;13.33;100.00;97673.06;4927756;29;20478;-75
2023/04/28 08:18:20;;;;;;;1.20;0.90;;;12.60;99.90;;;13.40;100.00;97665.94;4929160;29;20474;-75
2023/04/28 08:20:50;;;;;;;0.90;0.70;;;12.70;99.90;;;13.45;100.00;97674.00;4928188;29;20483;-76
2023/04/28 08:23:20;;;;;;;1.07;0.90;;;12.70;99.90;;;13.50;100.00;97676.75;4928208;29;20493;-75
2023/04/28 08:25:51;;;;;;;1.03;0.83;;;12.80;99.90;;;13.55;100.00;97684.81;4929006;29;20471;-75
2023/04/28 08:28:20;;;;;;;0.70;0.70;;;12.90;99.90;;;13.60;100.00;97690.25;4927433;29;20470;-74
2023/04/28 08:30:54;;;;;;;1.00;0.90;;;12.90;99.90;;;13.66;100.00;97690.41;4928288;29;20490;-75
2023/04/28 08:33:25;;;;;;;0.70;0.70;;;13.00;99.90;;;13.74;100.00;97685.69;4925767;29;21024;-75
2023/04/28 08:35:56;;;;;;;1.00;0.90;;;13.10;99.90;;;13.79;100.00;97679.75;4925286;29;20471;-75
2023/04/28 08:38:27;;;;;;;0.87;0.87;;;13.20;99.90;;;13.84;100.00;97679.94;4922730;29;20473;-75
2023/04/28 08:40:56;;;;;;;0.73;0.70;;;13.20;99.90;;;13.92;100.00;97690.16;4924178;29;20997;-75
2023/04/28 08:43:27;;;;;;;9.03;5.43;;;13.30;99.90;;;13.98;100.00;97691.94;4924934;29;20539;-75
2023/04/28 08:46:00;;;;;;;0.80;0.80;;;13.40;99.90;;;14.03;100.00;97687.63;4927186;29;20501;-76
2023/04/28 08:48:37;;;;;;;0.80;0.80;;;13.40;99.90;;;14.03;100.00;97702.59;4926812;29;20513;-75
2023/04/28 08:51:08;;;;;;;0.90;0.80;;;13.40;99.90;;;14.07;100.00;97695.88;4926042;29;20486;-75
2023/04/28 08:53:40;;;;;;;1.00;0.90;;;13.40;99.90;;;14.08;100.00;97697.50;4925449;29;20593;-75
2023/04/28 08:56:34;;;;;;;0.90;0.80;;;13.50;99.90;;;14.12;100.00;97698.66;4925487;29;20969;-75
2023/04/28 08:59:05;;;;;;;0.80;0.80;;;13.50;99.90;;;14.14;100.00;97699.25;4926836;29;20474;-75
2023/04/28 09:01:36;;;;;;;1.87;0.93;;;13.40;99.90;;;14.17;100.00;97688.28;4924842;29;21019;-75
2023/04/28 09:04:06;;;;;;;0.80;0.80;;;13.50;99.90;;;14.21;100.00;97678.94;4924324;29;20475;-74
2023/04/28 09:06:36;;;;;;;1.00;0.70;;;13.60;99.90;;;14.26;100.00;97681.72;4922917;29;20622;-75
2023/04/28 09:09:24;;;;;;;0.80;0.80;;;13.70;99.90;;;14.31;100.00;97692.38;4927517;29;20469;-74
2023/04/28 09:11:57;;;;;;;1.73;1.00;;;13.70;99.90;;;14.30;100.00;97698.66;4925206;29;20506;-77
2023/04/28 09:14:27;;;;;;;1.80;0.87;;;13.60;99.90;;;14.35;100.00;97688.31;4926291;29;20896;-75
2023/04/28 09:16:58;;;;;;;1.00;0.90;;;13.70;99.90;;;14.41;100.00;97690.06;4927557;29;20462;-75
2023/04/28 09:19:34;;;;;;;1.00;0.90;;;13.80;99.90;;;14.47;100.00;97699.72;4927267;29;21001;-75
2023/04/28 09:22:05;;;;;;;1.10;0.90;;;13.80;99.90;;;14.60;100.00;97699.56;4926018;29;21048;-75
2023/04/28 09:24:55;;;;;;;0.77;0.70;;;13.90;99.90;;;14.69;100.00;97696.63;4924678;29;20454;-75
2023/04/28 09:27:28;;;;;;;1.30;1.20;;;14.00;99.90;;;14.77;100.00;97696.31;4927362;29;20471;-76
2023/04/28 09:29:58;;;;;;;0.90;0.80;;;14.10;99.90;;;14.88;100.00;97687.69;4925021;29;20474;-75
2023/04/28 09:32:29;;;;;;;2.87;0.97;;;14.10;99.90;;;14.98;100.00;97693.22;4926942;29;20491;-75
2023/04/28 09:35:00;;;;;;;0.90;0.90;;;14.20;99.90;;;15.05;100.00;97691.28;4923259;29;21004;-75
2023/04/28 09:37:30;;;;;;;3.60;2.33;;;14.30;99.90;;;15.15;100.00;97681.03;4925205;29;20527;-75
2023/04/28 09:40:07;;;;;;;4.13;2.47;;;14.50;99.90;;;15.21;100.00;97685.38;4925681;29;20458;-74
2023/04/28 09:42:38;;;;;;;1.00;0.90;;;14.50;99.90;;;15.21;100.00;97690.66;4925820;29;21010;-75
2023/04/28 09:45:10;;;;;;;0.80;0.80;;;14.50;99.90;;;15.26;100.00;97695.25;4924287;29;20474;-75
2023/04/28 09:47:43;;;;;;;4.00;2.60;;;14.50;99.90;;;15.24;100.00;97700.72;4924800;29;21032;-74
2023/04/28 09:50:15;;;;;;;1.70;1.40;;;14.50;99.90;;;15.28;100.00;97701.09;4923476;29;20466;-75
2023/04/28 09:52:58;;;;;;;1.00;0.90;;;14.60;99.90;;;15.25;100.00;97698.91;4925142;29;20534;-75
2023/04/28 09:55:31;;;;;;;1.00;0.80;;;14.50;99.90;;;15.25;100.00;97707.63;4924675;29;20474;-75
2023/04/28 09:58:06;;;;;;;1.30;1.10;;;14.50;99.90;;;15.29;100.00;97710.59;4925800;29;20482;-75
2023/04/28 10:00:40;;;;;;;1.10;1.00;;;14.50;99.90;;;15.20;100.00;97704.06;4926890;29;20462;-75
2023/04/28 10:03:14;;;;;;;1.00;0.80;;;14.40;99.90;;;15.20;100.00;97704.88;4927435;29;20463;-75
2023/04/28 10:05:44;;;;;;;1.20;0.90;;;14.40;99.90;;;15.16;100.00;97708.97;4926092;29;20462;-75
2023/04/28 10:08:13;;;;;;;1.63;0.90;;;14.40;99.90;;;15.20;100.00;97709.34;4926107;29;20893;-75
2023/04/28 10:10:43;;;;;;;0.80;0.70;;;14.50;99.90;;;15.22;100.00;97687.00;4926921;29;20462;-75
2023/04/28 10:13:15;;;;;;;1.00;0.90;;;14.50;99.90;;;15.20;100.00;97689.06;4926755;29;20985;-74
2023/04/28 10:15:45;;;;;;;0.80;0.80;;;14.40;99.90;;;15.22;100.00;97697.53;4927185;29;20494;-75
2023/04/28 10:18:18;;;;;;;1.20;0.80;;;14.40;99.90;;;15.21;100.00;97705.66;4927750;29;20458;-75
2023/04/28 10:20:56;;;;;;;0.87;0.80;;;14.40;99.90;;;15.17;100.00;97710.56;4925383;29;21420;-74
2023/04/28 10:23:57;;;;;;;0.70;0.70;;;14.40;99.90;;;15.16;100.00;97708.97;4926989;29;20475;-75
2023/04/28 10:27:01;;;;;;;3.07;0.93;;;14.40;99.90;;;15.17;100.00;97707.94;4926490;29;20499;-75
2023/04/28 10:29:32;;;;;;;0.80;0.80;;;14.30;99.90;;;15.20;100.00;97717.22;4921791;29;20475;-75